sensor_id;sensor_type;location;lat;lon;timestamp;P1;durP1;ratioP1;P2;durP2;ratioP2
79533;SDS011;68982;52.160;6.736;2023-12-20T00:01:15;9.23;;;4.73;;
79533;SDS011;68982;52.160;6.736;2023-12-20T00:03:40;8.80;;;4.63;;
79533;SDS011;68982;52.160;6.736;2023-12-20T00:06:06;10.45;;;5.15;;
79533;SDS011;68982;52.160;6.736;2023-12-20T00:08:31;11.37;;;4.43;;
79533;SDS011;68982;52.160;6.736;2023-12-20T00:10:56;12.53;;;6.10;;
79533;SDS011;68982;52.160;6.736;2023-12-20T00:13:22;9.97;;;4.97;;
79533;SDS011;68982;52.160;6.736;2023-12-20T00:15:47;12.40;;;6.53;;
79533;SDS011;68982;52.160;6.736;2023-12-20T00:18:12;11.97;;;5.70;;
79533;SDS011;68982;52.160;6.736;2023-12-20T00:20:37;9.97;;;5.97;;
79533;SDS011;68982;52.160;6.736;2023-12-20T00:23:03;9.52;;;5.15;;
79533;SDS011;68982;52.160;6.736;2023-12-20T00:25:28;8.18;;;5.68;;
79533;SDS011;68982;52.160;6.736;2023-12-20T00:27:54;12.80;;;6.22;;
79533;SDS011;68982;52.160;6.736;2023-12-20T00:30:19;12.55;;;5.43;;
79533;SDS011;68982;52.160;6.736;2023-12-20T00:32:44;10.20;;;5.30;;
79533;SDS011;68982;52.160;6.736;2023-12-20T00:35:14;8.93;;;5.88;;
79533;SDS011;68982;52.160;6.736;2023-12-20T00:37:43;18.95;;;6.95;;
79533;SDS011;68982;52.160;6.736;2023-12-20T00:40:09;11.50;;;6.30;;
79533;SDS011;68982;52.160;6.736;2023-12-20T00:42:35;10.48;;;5.38;;
79533;SDS011;68982;52.160;6.736;2023-12-20T00:45:03;11.25;;;5.82;;
79533;SDS011;68982;52.160;6.736;2023-12-20T00:47:30;8.73;;;5.43;;
79533;SDS011;68982;52.160;6.736;2023-12-20T00:49:58;10.25;;;4.85;;
79533;SDS011;68982;52.160;6.736;2023-12-20T00:52:23;11.75;;;5.30;;
79533;SDS011;68982;52.160;6.736;2023-12-20T00:54:49;13.18;;;5.68;;
79533;SDS011;68982;52.160;6.736;2023-12-20T00:57:14;10.93;;;4.85;;
79533;SDS011;68982;52.160;6.736;2023-12-20T00:59:40;11.52;;;4.60;;
79533;SDS011;68982;52.160;6.736;2023-12-20T01:02:05;11.32;;;5.18;;
79533;SDS011;68982;52.160;6.736;2023-12-20T01:04:31;10.52;;;4.93;;
79533;SDS011;68982;52.160;6.736;2023-12-20T01:06:56;9.20;;;4.63;;
79533;SDS011;68982;52.160;6.736;2023-12-20T01:09:21;9.20;;;4.40;;
79533;SDS011;68982;52.160;6.736;2023-12-20T01:11:51;8.70;;;4.00;;
79533;SDS011;68982;52.160;6.736;2023-12-20T01:14:17;12.77;;;4.63;;
79533;SDS011;68982;52.160;6.736;2023-12-20T01:16:42;10.35;;;5.22;;
79533;SDS011;68982;52.160;6.736;2023-12-20T01:19:08;6.97;;;3.30;;
79533;SDS011;68982;52.160;6.736;2023-12-20T01:21:33;12.87;;;4.57;;
79533;SDS011;68982;52.160;6.736;2023-12-20T01:23:58;6.63;;;2.90;;
79533;SDS011;68982;52.160;6.736;2023-12-20T01:26:24;13.73;;;4.10;;
79533;SDS011;68982;52.160;6.736;2023-12-20T01:28:49;10.67;;;3.93;;
79533;SDS011;68982;52.160;6.736;2023-12-20T01:31:14;10.60;;;2.60;;
79533;SDS011;68982;52.160;6.736;2023-12-20T01:33:39;10.27;;;3.63;;
79533;SDS011;68982;52.160;6.736;2023-12-20T01:36:05;6.30;;;3.10;;
79533;SDS011;68982;52.160;6.736;2023-12-20T01:38:31;6.70;;;3.50;;
79533;SDS011;68982;52.160;6.736;2023-12-20T01:40:57;14.98;;;3.10;;
79533;SDS011;68982;52.160;6.736;2023-12-20T01:43:22;10.15;;;3.20;;
79533;SDS011;68982;52.160;6.736;2023-12-20T01:45:48;6.65;;;3.10;;
79533;SDS011;68982;52.160;6.736;2023-12-20T01:48:13;5.78;;;2.70;;
79533;SDS011;68982;52.160;6.736;2023-12-20T01:50:41;9.05;;;3.03;;
79533;SDS011;68982;52.160;6.736;2023-12-20T01:53:08;9.77;;;2.88;;
79533;SDS011;68982;52.160;6.736;2023-12-20T01:55:36;9.43;;;2.60;;
79533;SDS011;68982;52.160;6.736;2023-12-20T01:58:05;6.93;;;2.35;;
79533;SDS011;68982;52.160;6.736;2023-12-20T02:06:05;9.35;;;1.88;;
79533;SDS011;68982;52.160;6.736;2023-12-20T02:08:31;10.77;;;2.80;;
79533;SDS011;68982;52.160;6.736;2023-12-20T02:10:56;14.40;;;2.10;;
79533;SDS011;68982;52.160;6.736;2023-12-20T02:13:22;9.48;;;2.03;;
79533;SDS011;68982;52.160;6.736;2023-12-20T02:21:03;12.48;;;2.35;;
79533;SDS011;68982;52.160;6.736;2023-12-20T02:23:30;6.22;;;1.63;;
79533;SDS011;68982;52.160;6.736;2023-12-20T02:25:55;9.10;;;3.23;;
79533;SDS011;68982;52.160;6.736;2023-12-20T02:28:20;8.38;;;2.45;;
79533;SDS011;68982;52.160;6.736;2023-12-20T02:30:47;10.13;;;2.88;;
79533;SDS011;68982;52.160;6.736;2023-12-20T02:33:14;11.93;;;2.95;;
79533;SDS011;68982;52.160;6.736;2023-12-20T02:35:40;9.23;;;3.08;;
79533;SDS011;68982;52.160;6.736;2023-12-20T02:38:05;12.80;;;3.35;;
79533;SDS011;68982;52.160;6.736;2023-12-20T02:40:31;7.15;;;2.38;;
79533;SDS011;68982;52.160;6.736;2023-12-20T02:42:57;10.02;;;2.97;;
79533;SDS011;68982;52.160;6.736;2023-12-20T02:45:22;9.27;;;3.10;;
79533;SDS011;68982;52.160;6.736;2023-12-20T02:47:47;8.88;;;2.72;;
79533;SDS011;68982;52.160;6.736;2023-12-20T02:50:13;9.07;;;2.40;;
79533;SDS011;68982;52.160;6.736;2023-12-20T02:52:38;8.73;;;2.33;;
79533;SDS011;68982;52.160;6.736;2023-12-20T02:55:03;12.83;;;2.20;;
79533;SDS011;68982;52.160;6.736;2023-12-20T02:57:29;10.98;;;3.10;;
79533;SDS011;68982;52.160;6.736;2023-12-20T02:59:54;9.18;;;3.00;;
79533;SDS011;68982;52.160;6.736;2023-12-20T03:02:20;8.33;;;2.57;;
79533;SDS011;68982;52.160;6.736;2023-12-20T03:04:45;10.93;;;3.00;;
79533;SDS011;68982;52.160;6.736;2023-12-20T03:07:10;8.57;;;2.35;;
79533;SDS011;68982;52.160;6.736;2023-12-20T03:09:37;11.13;;;3.30;;
79533;SDS011;68982;52.160;6.736;2023-12-20T03:12:02;9.25;;;3.03;;
79533;SDS011;68982;52.160;6.736;2023-12-20T03:14:28;14.80;;;2.85;;
79533;SDS011;68982;52.160;6.736;2023-12-20T03:16:53;14.57;;;3.37;;
79533;SDS011;68982;52.160;6.736;2023-12-20T03:19:18;8.17;;;2.20;;
79533;SDS011;68982;52.160;6.736;2023-12-20T03:21:44;10.65;;;2.03;;
79533;SDS011;68982;52.160;6.736;2023-12-20T03:24:09;14.52;;;4.18;;
79533;SDS011;68982;52.160;6.736;2023-12-20T03:26:35;13.95;;;2.80;;
79533;SDS011;68982;52.160;6.736;2023-12-20T03:29:00;11.57;;;2.90;;
79533;SDS011;68982;52.160;6.736;2023-12-20T03:31:25;9.60;;;3.20;;
79533;SDS011;68982;52.160;6.736;2023-12-20T03:33:51;9.43;;;2.80;;
79533;SDS011;68982;52.160;6.736;2023-12-20T03:36:18;13.95;;;4.45;;
79533;SDS011;68982;52.160;6.736;2023-12-20T03:38:43;17.02;;;3.90;;
79533;SDS011;68982;52.160;6.736;2023-12-20T03:41:09;13.27;;;3.70;;
79533;SDS011;68982;52.160;6.736;2023-12-20T03:43:34;12.17;;;3.20;;
79533;SDS011;68982;52.160;6.736;2023-12-20T03:45:59;9.63;;;3.20;;
79533;SDS011;68982;52.160;6.736;2023-12-20T03:48:25;15.67;;;4.17;;
79533;SDS011;68982;52.160;6.736;2023-12-20T03:50:50;12.70;;;3.85;;
79533;SDS011;68982;52.160;6.736;2023-12-20T03:53:16;9.13;;;2.20;;
79533;SDS011;68982;52.160;6.736;2023-12-20T03:55:41;8.47;;;3.20;;
79533;SDS011;68982;52.160;6.736;2023-12-20T03:58:06;10.67;;;3.13;;
79533;SDS011;68982;52.160;6.736;2023-12-20T04:00:31;12.97;;;2.77;;
79533;SDS011;68982;52.160;6.736;2023-12-20T04:02:57;9.17;;;2.20;;
79533;SDS011;68982;52.160;6.736;2023-12-20T04:05:22;8.30;;;3.00;;
79533;SDS011;68982;52.160;6.736;2023-12-20T04:07:47;16.53;;;3.77;;
79533;SDS011;68982;52.160;6.736;2023-12-20T04:10:13;9.65;;;3.80;;
79533;SDS011;68982;52.160;6.736;2023-12-20T04:12:39;14.85;;;3.15;;
79533;SDS011;68982;52.160;6.736;2023-12-20T04:15:04;11.45;;;3.75;;
79533;SDS011;68982;52.160;6.736;2023-12-20T04:17:34;9.93;;;2.10;;
79533;SDS011;68982;52.160;6.736;2023-12-20T04:19:59;8.30;;;3.47;;
79533;SDS011;68982;52.160;6.736;2023-12-20T04:22:25;14.50;;;3.80;;
79533;SDS011;68982;52.160;6.736;2023-12-20T04:24:50;10.43;;;3.17;;
79533;SDS011;68982;52.160;6.736;2023-12-20T04:27:15;10.20;;;4.03;;
79533;SDS011;68982;52.160;6.736;2023-12-20T04:29:40;8.02;;;3.10;;
79533;SDS011;68982;52.160;6.736;2023-12-20T04:32:06;13.67;;;4.60;;
79533;SDS011;68982;52.160;6.736;2023-12-20T04:34:31;11.53;;;3.57;;
79533;SDS011;68982;52.160;6.736;2023-12-20T04:36:56;8.73;;;3.30;;
79533;SDS011;68982;52.160;6.736;2023-12-20T04:39:22;13.50;;;3.87;;
79533;SDS011;68982;52.160;6.736;2023-12-20T04:41:47;11.63;;;3.80;;
79533;SDS011;68982;52.160;6.736;2023-12-20T04:44:13;10.77;;;4.33;;
79533;SDS011;68982;52.160;6.736;2023-12-20T04:46:38;11.43;;;3.38;;
79533;SDS011;68982;52.160;6.736;2023-12-20T04:49:04;9.98;;;2.97;;
79533;SDS011;68982;52.160;6.736;2023-12-20T04:51:29;14.05;;;4.55;;
79533;SDS011;68982;52.160;6.736;2023-12-20T04:53:54;15.60;;;3.63;;
79533;SDS011;68982;52.160;6.736;2023-12-20T04:56:20;16.25;;;4.25;;
79533;SDS011;68982;52.160;6.736;2023-12-20T04:58:45;12.13;;;4.38;;
79533;SDS011;68982;52.160;6.736;2023-12-20T05:01:10;15.33;;;4.23;;
79533;SDS011;68982;52.160;6.736;2023-12-20T05:03:36;17.17;;;4.07;;
79533;SDS011;68982;52.160;6.736;2023-12-20T05:06:02;13.00;;;3.88;;
79533;SDS011;68982;52.160;6.736;2023-12-20T05:08:27;11.55;;;3.50;;
79533;SDS011;68982;52.160;6.736;2023-12-20T05:10:53;11.98;;;4.65;;
79533;SDS011;68982;52.160;6.736;2023-12-20T05:13:19;15.25;;;3.50;;
79533;SDS011;68982;52.160;6.736;2023-12-20T05:15:45;9.30;;;4.25;;
79533;SDS011;68982;52.160;6.736;2023-12-20T05:18:10;16.70;;;4.43;;
79533;SDS011;68982;52.160;6.736;2023-12-20T05:20:36;12.50;;;4.20;;
79533;SDS011;68982;52.160;6.736;2023-12-20T05:23:01;22.15;;;4.35;;
79533;SDS011;68982;52.160;6.736;2023-12-20T05:25:26;12.60;;;4.13;;
79533;SDS011;68982;52.160;6.736;2023-12-20T05:27:52;10.25;;;4.43;;
79533;SDS011;68982;52.160;6.736;2023-12-20T05:30:17;17.80;;;4.57;;
79533;SDS011;68982;52.160;6.736;2023-12-20T05:32:43;13.10;;;3.87;;
79533;SDS011;68982;52.160;6.736;2023-12-20T05:35:08;14.80;;;4.40;;
79533;SDS011;68982;52.160;6.736;2023-12-20T05:37:33;12.43;;;4.20;;
79533;SDS011;68982;52.160;6.736;2023-12-20T05:39:59;11.80;;;4.27;;
79533;SDS011;68982;52.160;6.736;2023-12-20T05:42:24;15.70;;;3.77;;
79533;SDS011;68982;52.160;6.736;2023-12-20T05:44:49;12.30;;;3.97;;
79533;SDS011;68982;52.160;6.736;2023-12-20T05:47:15;13.82;;;4.32;;
79533;SDS011;68982;52.160;6.736;2023-12-20T05:49:40;13.52;;;4.32;;
79533;SDS011;68982;52.160;6.736;2023-12-20T05:52:05;16.45;;;4.10;;
79533;SDS011;68982;52.160;6.736;2023-12-20T05:54:31;14.07;;;4.00;;
79533;SDS011;68982;52.160;6.736;2023-12-20T05:56:56;11.02;;;3.75;;
79533;SDS011;68982;52.160;6.736;2023-12-20T05:59:21;17.05;;;4.32;;
79533;SDS011;68982;52.160;6.736;2023-12-20T06:01:47;13.93;;;3.92;;
79533;SDS011;68982;52.160;6.736;2023-12-20T06:04:12;14.15;;;3.55;;
79533;SDS011;68982;52.160;6.736;2023-12-20T06:06:41;13.27;;;3.57;;
79533;SDS011;68982;52.160;6.736;2023-12-20T06:09:07;11.32;;;3.80;;
79533;SDS011;68982;52.160;6.736;2023-12-20T06:11:32;16.00;;;3.15;;
79533;SDS011;68982;52.160;6.736;2023-12-20T06:13:58;16.33;;;5.37;;
79533;SDS011;68982;52.160;6.736;2023-12-20T06:16:23;17.23;;;4.40;;
79533;SDS011;68982;52.160;6.736;2023-12-20T06:18:48;14.48;;;3.75;;
79533;SDS011;68982;52.160;6.736;2023-12-20T06:21:14;15.87;;;2.67;;
79533;SDS011;68982;52.160;6.736;2023-12-20T06:23:39;10.68;;;4.03;;
79533;SDS011;68982;52.160;6.736;2023-12-20T06:26:05;12.48;;;2.70;;
79533;SDS011;68982;52.160;6.736;2023-12-20T06:28:30;11.90;;;2.35;;
79533;SDS011;68982;52.160;6.736;2023-12-20T06:30:56;9.93;;;2.88;;
79533;SDS011;68982;52.160;6.736;2023-12-20T06:33:22;12.73;;;3.83;;
79533;SDS011;68982;52.160;6.736;2023-12-20T06:35:48;10.85;;;3.97;;
79533;SDS011;68982;52.160;6.736;2023-12-20T06:38:13;14.13;;;2.97;;
79533;SDS011;68982;52.160;6.736;2023-12-20T06:40:39;13.40;;;4.70;;
79533;SDS011;68982;52.160;6.736;2023-12-20T06:43:04;16.20;;;5.15;;
79533;SDS011;68982;52.160;6.736;2023-12-20T06:45:31;8.50;;;3.05;;
79533;SDS011;68982;52.160;6.736;2023-12-20T06:47:57;16.33;;;3.58;;
79533;SDS011;68982;52.160;6.736;2023-12-20T06:50:23;11.43;;;2.63;;
79533;SDS011;68982;52.160;6.736;2023-12-20T06:52:48;12.88;;;4.07;;
79533;SDS011;68982;52.160;6.736;2023-12-20T06:55:14;15.23;;;4.22;;
79533;SDS011;68982;52.160;6.736;2023-12-20T06:57:42;12.88;;;3.90;;
79533;SDS011;68982;52.160;6.736;2023-12-20T07:00:08;14.07;;;4.88;;
79533;SDS011;68982;52.160;6.736;2023-12-20T07:02:35;17.63;;;4.90;;
79533;SDS011;68982;52.160;6.736;2023-12-20T07:05:01;16.13;;;4.50;;
79533;SDS011;68982;52.160;6.736;2023-12-20T07:07:26;11.98;;;4.80;;
79533;SDS011;68982;52.160;6.736;2023-12-20T07:09:52;16.00;;;3.88;;
79533;SDS011;68982;52.160;6.736;2023-12-20T07:12:17;11.87;;;3.63;;
79533;SDS011;68982;52.160;6.736;2023-12-20T07:14:44;11.45;;;3.90;;
79533;SDS011;68982;52.160;6.736;2023-12-20T07:17:10;8.40;;;4.15;;
79533;SDS011;68982;52.160;6.736;2023-12-20T07:22:04;10.30;;;3.30;;
79533;SDS011;68982;52.160;6.736;2023-12-20T07:24:29;9.02;;;2.80;;
79533;SDS011;68982;52.160;6.736;2023-12-20T07:26:54;13.00;;;3.50;;
79533;SDS011;68982;52.160;6.736;2023-12-20T07:29:20;12.45;;;2.58;;
79533;SDS011;68982;52.160;6.736;2023-12-20T07:31:45;11.07;;;3.80;;
79533;SDS011;68982;52.160;6.736;2023-12-20T07:34:11;14.20;;;3.75;;
79533;SDS011;68982;52.160;6.736;2023-12-20T07:36:36;17.27;;;5.80;;
79533;SDS011;68982;52.160;6.736;2023-12-20T07:39:02;20.98;;;4.53;;
79533;SDS011;68982;52.160;6.736;2023-12-20T07:41:28;14.38;;;4.82;;
79533;SDS011;68982;52.160;6.736;2023-12-20T07:43:53;11.77;;;3.88;;
79533;SDS011;68982;52.160;6.736;2023-12-20T07:46:20;13.20;;;2.88;;
79533;SDS011;68982;52.160;6.736;2023-12-20T07:48:47;8.90;;;3.17;;
79533;SDS011;68982;52.160;6.736;2023-12-20T07:51:13;9.18;;;3.58;;
79533;SDS011;68982;52.160;6.736;2023-12-20T07:53:38;10.70;;;3.70;;
79533;SDS011;68982;52.160;6.736;2023-12-20T07:56:13;12.90;;;3.30;;
79533;SDS011;68982;52.160;6.736;2023-12-20T07:58:41;10.00;;;3.30;;
79533;SDS011;68982;52.160;6.736;2023-12-20T08:01:07;12.40;;;3.78;;
79533;SDS011;68982;52.160;6.736;2023-12-20T08:03:33;11.45;;;3.20;;
79533;SDS011;68982;52.160;6.736;2023-12-20T08:05:58;9.73;;;3.93;;
79533;SDS011;68982;52.160;6.736;2023-12-20T08:08:26;13.45;;;3.22;;
79533;SDS011;68982;52.160;6.736;2023-12-20T08:10:52;11.57;;;4.37;;
79533;SDS011;68982;52.160;6.736;2023-12-20T08:13:17;14.53;;;4.90;;
79533;SDS011;68982;52.160;6.736;2023-12-20T08:15:43;13.30;;;2.22;;
79533;SDS011;68982;52.160;6.736;2023-12-20T08:18:08;17.80;;;4.47;;
79533;SDS011;68982;52.160;6.736;2023-12-20T08:20:33;11.40;;;3.30;;
79533;SDS011;68982;52.160;6.736;2023-12-20T08:22:59;14.03;;;4.13;;
79533;SDS011;68982;52.160;6.736;2023-12-20T08:25:24;8.07;;;3.22;;
79533;SDS011;68982;52.160;6.736;2023-12-20T08:27:49;14.43;;;3.78;;
79533;SDS011;68982;52.160;6.736;2023-12-20T08:30:15;9.57;;;3.42;;
79533;SDS011;68982;52.160;6.736;2023-12-20T08:32:42;13.45;;;4.03;;
79533;SDS011;68982;52.160;6.736;2023-12-20T08:35:08;19.63;;;4.45;;
79533;SDS011;68982;52.160;6.736;2023-12-20T08:37:33;16.42;;;4.03;;
79533;SDS011;68982;52.160;6.736;2023-12-20T08:39:59;18.63;;;4.13;;
79533;SDS011;68982;52.160;6.736;2023-12-20T08:42:24;12.38;;;2.90;;
79533;SDS011;68982;52.160;6.736;2023-12-20T08:44:55;9.98;;;3.72;;
79533;SDS011;68982;52.160;6.736;2023-12-20T08:47:21;17.60;;;4.43;;
79533;SDS011;68982;52.160;6.736;2023-12-20T08:49:46;10.47;;;3.63;;
79533;SDS011;68982;52.160;6.736;2023-12-20T08:52:11;20.87;;;4.80;;
79533;SDS011;68982;52.160;6.736;2023-12-20T08:54:37;13.80;;;2.47;;
79533;SDS011;68982;52.160;6.736;2023-12-20T08:57:02;11.43;;;3.70;;
79533;SDS011;68982;52.160;6.736;2023-12-20T08:59:27;11.25;;;3.70;;
79533;SDS011;68982;52.160;6.736;2023-12-20T09:01:53;19.93;;;4.47;;
79533;SDS011;68982;52.160;6.736;2023-12-20T09:04:19;7.53;;;3.47;;
79533;SDS011;68982;52.160;6.736;2023-12-20T09:06:45;13.30;;;3.28;;
79533;SDS011;68982;52.160;6.736;2023-12-20T09:09:10;17.43;;;4.87;;
79533;SDS011;68982;52.160;6.736;2023-12-20T09:11:38;13.85;;;4.00;;
79533;SDS011;68982;52.160;6.736;2023-12-20T09:14:04;17.38;;;4.00;;
79533;SDS011;68982;52.160;6.736;2023-12-20T09:16:29;13.35;;;5.25;;
79533;SDS011;68982;52.160;6.736;2023-12-20T09:18:56;13.73;;;4.30;;
79533;SDS011;68982;52.160;6.736;2023-12-20T09:21:21;12.00;;;3.33;;
79533;SDS011;68982;52.160;6.736;2023-12-20T09:23:47;14.50;;;3.95;;
79533;SDS011;68982;52.160;6.736;2023-12-20T09:26:12;15.00;;;4.37;;
79533;SDS011;68982;52.160;6.736;2023-12-20T09:28:37;15.63;;;5.30;;
79533;SDS011;68982;52.160;6.736;2023-12-20T09:31:05;13.73;;;4.53;;
79533;SDS011;68982;52.160;6.736;2023-12-20T09:33:31;14.93;;;4.30;;
79533;SDS011;68982;52.160;6.736;2023-12-20T09:35:57;14.65;;;4.13;;
79533;SDS011;68982;52.160;6.736;2023-12-20T09:38:22;13.40;;;3.38;;
79533;SDS011;68982;52.160;6.736;2023-12-20T09:40:48;11.70;;;3.47;;
79533;SDS011;68982;52.160;6.736;2023-12-20T09:43:14;16.42;;;3.67;;
79533;SDS011;68982;52.160;6.736;2023-12-20T09:45:40;12.13;;;3.00;;
79533;SDS011;68982;52.160;6.736;2023-12-20T09:48:09;14.57;;;3.60;;
79533;SDS011;68982;52.160;6.736;2023-12-20T09:50:35;12.00;;;3.35;;
79533;SDS011;68982;52.160;6.736;2023-12-20T09:53:01;12.18;;;3.92;;
79533;SDS011;68982;52.160;6.736;2023-12-20T09:55:29;15.45;;;3.20;;
79533;SDS011;68982;52.160;6.736;2023-12-20T09:57:56;10.02;;;4.18;;
79533;SDS011;68982;52.160;6.736;2023-12-20T10:00:22;11.80;;;4.53;;
79533;SDS011;68982;52.160;6.736;2023-12-20T10:02:50;14.23;;;4.18;;
79533;SDS011;68982;52.160;6.736;2023-12-20T10:05:24;17.55;;;4.80;;
79533;SDS011;68982;52.160;6.736;2023-12-20T10:07:52;19.98;;;5.20;;
79533;SDS011;68982;52.160;6.736;2023-12-20T10:10:18;14.87;;;4.80;;
79533;SDS011;68982;52.160;6.736;2023-12-20T10:13:00;15.70;;;4.45;;
79533;SDS011;68982;52.160;6.736;2023-12-20T10:15:33;12.02;;;4.05;;
79533;SDS011;68982;52.160;6.736;2023-12-20T10:17:59;16.35;;;4.80;;
79533;SDS011;68982;52.160;6.736;2023-12-20T10:20:26;16.75;;;4.28;;
79533;SDS011;68982;52.160;6.736;2023-12-20T10:22:53;11.00;;;2.80;;
79533;SDS011;68982;52.160;6.736;2023-12-20T10:25:20;11.18;;;4.32;;
79533;SDS011;68982;52.160;6.736;2023-12-20T10:27:46;9.40;;;3.63;;
79533;SDS011;68982;52.160;6.736;2023-12-20T10:30:11;11.07;;;4.13;;
79533;SDS011;68982;52.160;6.736;2023-12-20T10:32:37;8.90;;;4.30;;
79533;SDS011;68982;52.160;6.736;2023-12-20T10:35:02;13.20;;;5.07;;
79533;SDS011;68982;52.160;6.736;2023-12-20T10:37:28;11.30;;;4.35;;
79533;SDS011;68982;52.160;6.736;2023-12-20T10:39:54;12.30;;;4.10;;
79533;SDS011;68982;52.160;6.736;2023-12-20T10:42:23;12.27;;;4.35;;
79533;SDS011;68982;52.160;6.736;2023-12-20T10:44:51;12.82;;;4.72;;
79533;SDS011;68982;52.160;6.736;2023-12-20T10:47:18;12.88;;;4.40;;
79533;SDS011;68982;52.160;6.736;2023-12-20T10:49:44;13.52;;;4.07;;
79533;SDS011;68982;52.160;6.736;2023-12-20T10:52:11;13.48;;;4.50;;
79533;SDS011;68982;52.160;6.736;2023-12-20T10:54:38;14.57;;;4.25;;
79533;SDS011;68982;52.160;6.736;2023-12-20T10:57:05;18.85;;;4.35;;
79533;SDS011;68982;52.160;6.736;2023-12-20T10:59:33;14.07;;;4.40;;
79533;SDS011;68982;52.160;6.736;2023-12-20T11:01:59;11.77;;;4.65;;
79533;SDS011;68982;52.160;6.736;2023-12-20T11:04:31;18.80;;;6.25;;
79533;SDS011;68982;52.160;6.736;2023-12-20T11:07:07;17.63;;;5.53;;
79533;SDS011;68982;52.160;6.736;2023-12-20T11:09:41;10.85;;;4.15;;
79533;SDS011;68982;52.160;6.736;2023-12-20T11:12:20;16.73;;;5.05;;
79533;SDS011;68982;52.160;6.736;2023-12-20T11:14:54;30.15;;;7.70;;
79533;SDS011;68982;52.160;6.736;2023-12-20T11:17:27;13.60;;;6.25;;
79533;SDS011;68982;52.160;6.736;2023-12-20T11:22:21;10.50;;;4.50;;
79533;SDS011;68982;52.160;6.736;2023-12-20T11:24:49;11.75;;;4.68;;
79533;SDS011;68982;52.160;6.736;2023-12-20T11:27:15;12.65;;;4.50;;
79533;SDS011;68982;52.160;6.736;2023-12-20T11:29:41;15.02;;;5.22;;
79533;SDS011;68982;52.160;6.736;2023-12-20T11:34:53;9.35;;;4.25;;
79533;SDS011;68982;52.160;6.736;2023-12-20T11:37:35;11.55;;;5.13;;
79533;SDS011;68982;52.160;6.736;2023-12-20T11:40:02;15.00;;;4.75;;
79533;SDS011;68982;52.160;6.736;2023-12-20T11:42:37;10.85;;;3.90;;
79533;SDS011;68982;52.160;6.736;2023-12-20T11:45:03;12.15;;;4.20;;
79533;SDS011;68982;52.160;6.736;2023-12-20T11:47:30;13.27;;;3.75;;
79533;SDS011;68982;52.160;6.736;2023-12-20T11:49:56;11.52;;;3.78;;
79533;SDS011;68982;52.160;6.736;2023-12-20T11:52:21;14.07;;;2.80;;
79533;SDS011;68982;52.160;6.736;2023-12-20T11:54:47;10.18;;;3.72;;
79533;SDS011;68982;52.160;6.736;2023-12-20T11:57:13;10.32;;;3.40;;
79533;SDS011;68982;52.160;6.736;2023-12-20T11:59:38;10.05;;;4.28;;
79533;SDS011;68982;52.160;6.736;2023-12-20T12:02:04;11.70;;;3.88;;
79533;SDS011;68982;52.160;6.736;2023-12-20T12:04:29;11.20;;;2.88;;
79533;SDS011;68982;52.160;6.736;2023-12-20T12:06:54;12.98;;;4.28;;
79533;SDS011;68982;52.160;6.736;2023-12-20T12:09:19;16.43;;;4.80;;
79533;SDS011;68982;52.160;6.736;2023-12-20T12:11:45;16.08;;;5.20;;
79533;SDS011;68982;52.160;6.736;2023-12-20T12:14:10;14.20;;;3.42;;
79533;SDS011;68982;52.160;6.736;2023-12-20T12:16:36;10.98;;;4.05;;
79533;SDS011;68982;52.160;6.736;2023-12-20T12:19:01;11.73;;;2.70;;
79533;SDS011;68982;52.160;6.736;2023-12-20T12:21:27;9.68;;;3.45;;
79533;SDS011;68982;52.160;6.736;2023-12-20T12:23:52;17.85;;;3.97;;
79533;SDS011;68982;52.160;6.736;2023-12-20T12:26:18;12.75;;;3.92;;
79533;SDS011;68982;52.160;6.736;2023-12-20T12:28:43;13.73;;;3.95;;
79533;SDS011;68982;52.160;6.736;2023-12-20T12:31:13;17.65;;;4.13;;
79533;SDS011;68982;52.160;6.736;2023-12-20T12:33:42;13.77;;;4.85;;
79533;SDS011;68982;52.160;6.736;2023-12-20T12:36:08;13.02;;;4.10;;
79533;SDS011;68982;52.160;6.736;2023-12-20T12:38:34;14.73;;;3.83;;
79533;SDS011;68982;52.160;6.736;2023-12-20T12:41:00;9.23;;;3.30;;
79533;SDS011;68982;52.160;6.736;2023-12-20T12:43:25;12.07;;;4.55;;
79533;SDS011;68982;52.160;6.736;2023-12-20T12:45:51;18.20;;;4.43;;
79533;SDS011;68982;52.160;6.736;2023-12-20T12:48:16;10.40;;;4.22;;
79533;SDS011;68982;52.160;6.736;2023-12-20T12:50:42;9.77;;;3.53;;
79533;SDS011;68982;52.160;6.736;2023-12-20T12:53:08;10.77;;;3.85;;
79533;SDS011;68982;52.160;6.736;2023-12-20T12:55:34;11.30;;;3.63;;
79533;SDS011;68982;52.160;6.736;2023-12-20T12:58:00;7.82;;;3.53;;
79533;SDS011;68982;52.160;6.736;2023-12-20T13:00:26;15.35;;;3.47;;
79533;SDS011;68982;52.160;6.736;2023-12-20T13:02:53;9.77;;;2.88;;
79533;SDS011;68982;52.160;6.736;2023-12-20T13:05:19;13.57;;;3.97;;
79533;SDS011;68982;52.160;6.736;2023-12-20T13:07:44;12.30;;;3.85;;
79533;SDS011;68982;52.160;6.736;2023-12-20T13:10:11;13.02;;;3.75;;
79533;SDS011;68982;52.160;6.736;2023-12-20T13:12:36;11.60;;;3.83;;
79533;SDS011;68982;52.160;6.736;2023-12-20T13:15:03;10.73;;;3.75;;
79533;SDS011;68982;52.160;6.736;2023-12-20T13:17:31;10.25;;;2.42;;
79533;SDS011;68982;52.160;6.736;2023-12-20T13:19:56;13.32;;;3.80;;
79533;SDS011;68982;52.160;6.736;2023-12-20T13:22:22;10.10;;;3.37;;
79533;SDS011;68982;52.160;6.736;2023-12-20T13:24:47;11.33;;;2.83;;
79533;SDS011;68982;52.160;6.736;2023-12-20T13:27:12;19.35;;;5.30;;
79533;SDS011;68982;52.160;6.736;2023-12-20T13:29:38;15.02;;;4.28;;
79533;SDS011;68982;52.160;6.736;2023-12-20T13:32:03;10.57;;;4.10;;
79533;SDS011;68982;52.160;6.736;2023-12-20T13:34:29;9.70;;;3.85;;
79533;SDS011;68982;52.160;6.736;2023-12-20T13:36:54;9.93;;;3.90;;
79533;SDS011;68982;52.160;6.736;2023-12-20T13:39:20;10.00;;;3.80;;
79533;SDS011;68982;52.160;6.736;2023-12-20T13:41:46;12.10;;;3.80;;
79533;SDS011;68982;52.160;6.736;2023-12-20T13:44:12;13.45;;;3.65;;
79533;SDS011;68982;52.160;6.736;2023-12-20T13:46:37;15.85;;;3.97;;
79533;SDS011;68982;52.160;6.736;2023-12-20T13:49:03;12.50;;;2.97;;
79533;SDS011;68982;52.160;6.736;2023-12-20T13:51:30;14.00;;;3.45;;
79533;SDS011;68982;52.160;6.736;2023-12-20T13:53:55;12.10;;;3.20;;
79533;SDS011;68982;52.160;6.736;2023-12-20T13:56:20;14.68;;;3.60;;
79533;SDS011;68982;52.160;6.736;2023-12-20T13:58:48;10.20;;;3.40;;
79533;SDS011;68982;52.160;6.736;2023-12-20T14:01:13;10.48;;;3.60;;
79533;SDS011;68982;52.160;6.736;2023-12-20T14:03:39;10.10;;;3.17;;
79533;SDS011;68982;52.160;6.736;2023-12-20T14:06:04;8.00;;;3.50;;
79533;SDS011;68982;52.160;6.736;2023-12-20T14:08:29;13.27;;;3.78;;
79533;SDS011;68982;52.160;6.736;2023-12-20T14:10:55;11.23;;;4.28;;
79533;SDS011;68982;52.160;6.736;2023-12-20T14:13:20;8.63;;;3.65;;
79533;SDS011;68982;52.160;6.736;2023-12-20T14:15:46;13.65;;;3.42;;
79533;SDS011;68982;52.160;6.736;2023-12-20T14:18:12;9.15;;;3.97;;
79533;SDS011;68982;52.160;6.736;2023-12-20T14:23:05;13.77;;;3.40;;
79533;SDS011;68982;52.160;6.736;2023-12-20T14:25:31;8.60;;;4.30;;
79533;SDS011;68982;52.160;6.736;2023-12-20T14:30:24;11.15;;;3.42;;
79533;SDS011;68982;52.160;6.736;2023-12-20T14:32:50;5.70;;;2.92;;
79533;SDS011;68982;52.160;6.736;2023-12-20T14:35:15;9.90;;;3.20;;
79533;SDS011;68982;52.160;6.736;2023-12-20T14:37:41;13.30;;;3.85;;
79533;SDS011;68982;52.160;6.736;2023-12-20T14:40:06;11.48;;;3.50;;
79533;SDS011;68982;52.160;6.736;2023-12-20T14:42:36;12.27;;;3.30;;
79533;SDS011;68982;52.160;6.736;2023-12-20T14:45:01;9.23;;;3.13;;
79533;SDS011;68982;52.160;6.736;2023-12-20T14:47:27;9.65;;;3.08;;
79533;SDS011;68982;52.160;6.736;2023-12-20T14:49:52;9.93;;;3.00;;
79533;SDS011;68982;52.160;6.736;2023-12-20T14:52:18;10.95;;;3.35;;
79533;SDS011;68982;52.160;6.736;2023-12-20T14:54:44;15.98;;;3.38;;